CheckWX is a tool to help pilots better visualize weather data.  It is not intended as a substitute for an official pre-flight weather briefing.

12:59:18 UTC

EPPW TAF
Powidz Military Air Base Airport
Poland
TAF EPPW 201100Z 2012/2021 VRB03KT CAVOK

Aug-20@
12:00 UTC

Aug-20 @ 12:00 UTC

Aug-20@
21:00 UTC

Aug-20 @ 21:00 UTC

TAF EPPW 201100Z 2012/2021 VRB03KT CAVOK
Wind
  • Variable at 3 KTS
Conditions
No significant weather
Cloud Levels
  • No significant clouds